Time;durP1;ratioP1;P1;durP2;ratioP2;P2;SDS_P1;SDS_P2;PMS_P1;PMS_P2;Temp;Humidity;BMP_temperature;BMP_pressure;BME280_temperature;BME280_humidity;BME280_pressure;Samples;Min_cycle;Max_cycle;Signal;HPM_P1;HPM_P2
2022/04/29 00:01:04;;;;;;;22.30;15.30;;;;;;;8.17;59.36;101266.10;130364;1268;108764;-77
2022/04/29 00:04:09;;;;;;;21.70;15.60;;;;;;;8.15;59.55;101267.00;130422;1266;107368;-78
2022/04/29 00:07:15;;;;;;;23.00;15.80;;;;;;;8.14;59.65;101264.20;130448;1268;108725;-77
2022/04/29 00:10:21;;;;;;;24.90;16.70;;;;;;;8.12;59.34;101268.06;130431;1268;108684;-77
2022/04/29 00:13:27;;;;;;;23.90;16.60;;;;;;;8.08;59.60;101264.13;130413;1268;108711;-76
2022/04/29 00:16:32;;;;;;;25.20;17.20;;;;;;;7.99;59.65;101260.14;130359;1268;108881;-76
2022/04/29 00:19:37;;;;;;;24.90;17.10;;;;;;;7.92;59.42;101261.19;130448;1268;108822;-75
2022/04/29 00:22:44;;;;;;;23.80;16.50;;;;;;;7.88;59.68;101262.16;130549;1268;108630;-74
2022/04/29 00:25:49;;;;;;;26.60;16.20;;;;;;;7.83;59.77;101258.65;130432;1267;108700;-76
2022/04/29 00:28:55;;;;;;;23.50;15.50;;;;;;;7.80;59.94;101256.89;130505;1267;108780;-76
2022/04/29 00:32:00;;;;;;;24.70;16.70;;;;;;;7.80;59.99;101263.64;130495;1268;108821;-75
2022/04/29 00:35:08;;;;;;;27.70;17.30;;;;;;;7.80;60.00;101259.95;130503;1268;108782;-76
2022/04/29 00:38:16;;;;;;;25.80;17.10;;;;;;;7.80;60.00;101256.38;130451;1268;108858;-81
2022/04/29 00:41:24;;;;;;;26.00;17.70;;;;;;;7.81;59.80;101258.80;130640;1268;108818;-80
2022/04/29 00:44:30;;;;;;;26.70;17.90;;;;;;;7.79;59.53;101255.16;130571;1268;108658;-80
2022/04/29 00:47:35;;;;;;;26.00;17.00;;;;;;;7.75;59.73;101254.30;130456;1268;108869;-80
2022/04/29 00:50:41;;;;;;;25.20;17.30;;;;;;;7.64;59.77;101252.91;130466;1268;108755;-79
2022/04/29 00:53:47;;;;;;;30.10;19.30;;;;;;;7.58;59.84;101248.91;130569;1268;108753;-79
2022/04/29 00:56:55;;;;;;;30.50;19.20;;;;;;;7.50;59.77;101243.10;130451;1266;108913;-79
2022/04/29 01:00:05;;;;;;;27.00;17.40;;;;;;;7.36;59.79;101241.11;130426;1268;108823;-79
2022/04/29 01:03:15;;;;;;;27.00;18.10;;;;;;;7.22;60.31;101238.16;130555;1268;108892;-79
2022/04/29 01:06:20;;;;;;;27.40;18.10;;;;;;;7.10;60.29;101239.36;130379;1268;108783;-79
2022/04/29 01:09:26;;;;;;;28.00;18.10;;;;;;;7.02;60.23;101237.27;130414;1268;107611;-78
2022/04/29 01:12:38;;;;;;;25.60;18.10;;;;;;;6.95;60.20;101238.27;130375;1268;108661;-77
2022/04/29 01:15:42;;;;;;;;;;;;;;;6.87;60.57;101236.67;130389;1267;108631;-79
2022/04/29 01:18:51;;;;;;;28.20;18.60;;;;;;;6.84;60.29;101234.80;130365;1268;108665;-79
2022/04/29 01:22:02;;;;;;;30.50;19.10;;;;;;;6.77;60.33;101231.33;130384;1268;108662;-81
2022/04/29 01:25:10;;;;;;;32.10;20.20;;;;;;;6.72;60.30;101234.38;130391;1268;108689;-79
2022/04/29 01:28:17;;;;;;;32.00;20.00;;;;;;;6.65;60.17;101233.88;130379;1268;107643;-79
2022/04/29 01:31:28;;;;;;;28.70;19.00;;;;;;;6.56;60.37;101236.63;130354;1268;108717;-77
2022/04/29 01:34:34;;;;;;;32.00;19.70;;;;;;;6.49;60.39;101231.80;130388;1267;109039;-77
2022/04/29 01:37:42;;;;;;;31.20;20.00;;;;;;;6.44;60.49;101230.23;130202;1266;240869;-76
2022/04/29 01:40:47;;;;;;;28.80;20.50;;;;;;;6.36;60.52;101226.31;130473;1268;107683;-76
2022/04/29 01:43:56;;;;;;;32.30;20.30;;;;;;;6.29;60.76;101226.11;130489;1268;107738;-75
2022/04/29 01:47:02;;;;;;;34.20;21.50;;;;;;;6.24;60.62;101228.34;130322;1268;108870;-76
2022/04/29 01:50:26;;;;;;;36.20;23.90;;;;;;;6.18;60.78;101231.77;130404;1268;108829;-75
2022/04/29 01:53:32;;;;;;;33.10;23.00;;;;;;;6.10;60.69;101231.05;130392;1267;108788;-75
2022/04/29 01:56:38;;;;;;;37.90;23.50;;;;;;;6.03;60.79;101227.29;130517;1268;108819;-76
2022/04/29 01:59:46;;;;;;;35.40;23.50;;;;;;;5.98;60.83;101223.17;130570;1268;108945;-76
2022/04/29 02:03:04;;;;;;;35.00;23.20;;;;;;;5.95;60.69;101221.60;130493;1268;108693;-75
2022/04/29 02:06:10;;;;;;;33.80;21.00;;;;;;;5.90;61.05;101222.97;130503;1268;108795;-76
2022/04/29 02:09:15;;;;;;;35.80;22.30;;;;;;;5.88;61.01;101221.27;130383;1268;108762;-77
2022/04/29 02:12:22;;;;;;;32.00;19.80;;;;;;;5.88;60.90;101220.96;130502;1268;108907;-77
2022/04/29 02:15:34;;;;;;;32.10;20.90;;;;;;;5.85;60.82;101218.64;130411;1268;108671;-76
2022/04/29 02:18:44;;;;;;;33.50;21.20;;;;;;;5.86;61.06;101216.64;130405;1268;108981;-78
2022/04/29 02:21:50;;;;;;;36.00;22.70;;;;;;;5.84;60.90;101215.88;130428;1268;109026;-78
2022/04/29 02:24:56;;;;;;;36.30;22.50;;;;;;;5.82;60.77;101217.60;130430;1266;108780;-78
2022/04/29 02:28:01;;;;;;;34.90;22.30;;;;;;;5.79;60.87;101217.29;130383;1268;108581;-73
2022/04/29 02:31:07;;;;;;;37.30;22.90;;;;;;;5.77;60.89;101217.26;130439;1268;107799;-75
2022/04/29 02:34:13;;;;;;;37.80;24.40;;;;;;;5.72;60.87;101215.11;130562;1268;109152;-73
2022/04/29 02:37:19;;;;;;;38.00;23.60;;;;;;;5.64;60.86;101211.75;130318;1268;108670;-79
2022/04/29 02:40:27;;;;;;;36.70;24.20;;;;;;;5.55;60.89;101208.55;130432;1268;108684;-76
2022/04/29 02:43:34;;;;;;;39.20;25.20;;;;;;;5.48;60.90;101205.84;130405;1268;108882;-78
2022/04/29 02:47:06;;;;;;;40.40;24.60;;;;;;;5.42;60.98;101212.89;130601;1268;109055;-78
2022/04/29 02:50:09;;;;;;;39.80;24.80;;;;;;;5.35;61.11;101209.30;130496;1267;108726;-82
2022/04/29 02:53:14;;;;;;;40.80;25.40;;;;;;;5.30;60.94;101209.77;130587;1267;108861;-83
2022/04/29 02:56:20;;;;;;;40.90;25.30;;;;;;;5.26;61.10;101208.09;130524;1268;107684;-81
2022/04/29 02:59:49;;;;;;;43.00;24.80;;;;;;;5.22;61.14;101202.89;130355;1268;108874;-83
2022/04/29 03:02:54;;;;;;;38.00;24.70;;;;;;;5.19;61.11;101204.64;130563;1268;108825;-80
2022/04/29 03:06:00;;;;;;;38.60;24.10;;;;;;;5.16;61.26;101203.08;130485;1267;108957;-83
2022/04/29 03:09:06;;;;;;;37.00;24.40;;;;;;;5.14;61.10;101203.02;130532;1268;106934;-82
2022/04/29 03:12:13;;;;;;;37.70;24.20;;;;;;;5.10;61.20;101204.84;130554;1268;108857;-81
2022/04/29 03:15:19;;;;;;;38.80;24.00;;;;;;;5.04;61.17;101203.96;130517;1268;107651;-82
2022/04/29 03:18:29;;;;;;;39.00;23.70;;;;;;;5.01;61.24;101207.70;130504;1266;108774;-83
2022/04/29 03:21:35;;;;;;;35.60;22.90;;;;;;;5.01;61.35;101211.55;130507;1268;108689;-83
2022/04/29 03:24:41;;;;;;;38.60;25.20;;;;;;;5.04;61.41;101207.83;130591;1266;108677;-83
2022/04/29 03:27:46;;;;;;;37.00;24.20;;;;;;;5.10;61.45;101209.59;130536;1268;108816;-84
2022/04/29 03:30:52;;;;;;;35.70;23.30;;;;;;;5.15;61.41;101209.52;130539;1268;108976;-83
2022/04/29 03:34:01;;;;;;;36.00;22.50;;;;;;;5.18;61.51;101210.36;130500;1267;107397;-83
2022/04/29 03:37:06;;;;;;;35.40;22.30;;;;;;;5.21;61.64;101211.55;130478;1268;108729;-83
2022/04/29 03:40:15;;;;;;;32.50;21.20;;;;;;;5.27;61.65;101206.95;130545;1268;108654;-84
2022/04/29 03:43:20;;;;;;;33.70;20.50;;;;;;;5.37;61.75;101212.38;130492;1268;108442;-83
2022/04/29 03:46:26;;;;;;;31.40;19.60;;;;;;;5.51;61.85;101210.98;130398;1267;108905;-83
2022/04/29 03:49:54;;;;;;;32.50;20.90;;;;;;;5.71;61.83;101207.42;130485;1268;107668;-84
2022/04/29 03:53:04;;;;;;;33.60;20.60;;;;;;;5.87;62.07;101207.56;130489;1268;108862;-83
2022/04/29 03:56:12;;;;;;;33.80;21.70;;;;;;;6.06;61.94;101206.94;130502;1267;108729;-82
2022/04/29 03:59:19;;;;;;;30.90;20.10;;;;;;;6.25;62.09;101208.87;130455;1267;108721;-83
2022/04/29 04:02:24;;;;;;;32.10;19.70;;;;;;;6.41;61.97;101211.13;130518;1268;108899;-83
2022/04/29 04:05:31;;;;;;;34.00;20.90;;;;;;;6.52;61.97;101207.39;130477;1267;108697;-83
2022/04/29 04:08:37;;;;;;;30.90;21.00;;;;;;;6.54;62.04;101209.73;130494;1268;108702;-83
2022/04/29 04:11:43;;;;;;;30.70;20.20;;;;;;;6.59;62.07;101211.55;130575;1267;108989;-83
2022/04/29 04:14:49;;;;;;;30.20;19.80;;;;;;;6.69;62.19;101214.77;130460;1268;108753;-83
2022/04/29 04:17:55;;;;;;;30.80;20.00;;;;;;;6.80;62.51;101210.86;130439;1268;107625;-82
2022/04/29 04:21:00;;;;;;;30.50;19.20;;;;;;;6.84;62.62;101209.45;130448;1267;108819;-83
2022/04/29 04:24:08;;;;;;;30.00;18.40;;;;;;;6.90;62.82;101211.52;130421;1268;108731;-82
2022/04/29 04:27:14;;;;;;;29.00;19.40;;;;;;;7.05;63.12;101205.72;130508;1268;108668;-83
2022/04/29 04:30:19;;;;;;;26.30;17.70;;;;;;;7.26;63.24;101210.61;130481;1268;108901;-83
2022/04/29 04:33:25;;;;;;;25.10;15.50;;;;;;;7.47;63.47;101214.30;130605;1266;108149;-82
2022/04/29 04:36:32;;;;;;;26.60;16.70;;;;;;;7.76;63.80;101209.40;130595;1267;108658;-82
2022/04/29 04:39:38;;;;;;;27.10;18.30;;;;;;;8.15;63.77;101210.80;130473;1267;108724;-83
2022/04/29 04:42:47;;;;;;;26.40;18.30;;;;;;;8.48;63.64;101213.86;130477;1267;108767;-83
2022/04/29 04:46:05;;;;;;;25.20;17.70;;;;;;;8.64;63.70;101215.66;130398;1268;108754;-84
2022/04/29 04:49:31;;;;;;;26.10;18.40;;;;;;;8.82;63.83;101216.05;130512;1266;108692;-83
2022/04/29 04:52:45;;;;;;;;;;;;;;;9.08;64.01;101216.20;130454;1267;108930;-83
2022/04/29 04:55:51;;;;;;;23.80;17.20;;;;;;;9.33;63.86;101212.59;130670;1266;108772;-83
2022/04/29 04:58:57;;;;;;;24.00;17.90;;;;;;;9.51;63.88;101214.20;130717;1268;108684;-82
2022/04/29 05:02:02;;;;;;;23.40;16.90;;;;;;;9.64;63.94;101214.62;130443;1268;108747;-80
2022/04/29 05:05:41;;;;;;;25.70;17.30;;;;;;;9.93;64.31;101210.34;130493;1268;107696;-83
2022/04/29 05:08:51;;;;;;;22.90;16.60;;;;;;;10.26;63.89;101205.85;130464;1267;108714;-83
2022/04/29 05:11:56;;;;;;;22.60;15.80;;;;;;;10.49;63.28;101206.19;130519;1267;108629;-87
2022/04/29 05:15:29;;;;;;;21.90;16.00;;;;;;;10.66;63.36;101214.06;130569;1266;108684;-81
2022/04/29 05:18:34;;;;;;;20.80;15.60;;;;;;;10.75;63.06;101209.34;131287;1268;108633;-83
2022/04/29 05:21:46;;;;;;;20.20;15.10;;;;;;;10.82;63.37;101213.55;130871;1267;108103;-82
2022/04/29 05:24:51;;;;;;;20.40;15.30;;;;;;;10.80;63.14;101208.02;130488;1268;108779;-82
2022/04/29 05:28:15;;;;;;;18.70;14.30;;;;;;;10.76;63.12;101209.66;130757;1268;109209;-81
2022/04/29 05:31:53;;;;;;;20.60;14.10;;;;;;;10.74;62.96;101207.00;130739;1267;108788;-82
2022/04/29 05:35:34;;;;;;;19.90;14.10;;;;;;;10.77;62.84;101204.94;130660;1267;108135;-82
2022/04/29 05:42:35;;;;;;;20.60;14.20;;;;;;;11.22;63.17;101206.24;130747;1268;108691;-83
2022/04/29 05:45:43;;;;;;;18.40;12.50;;;;;;;11.41;62.99;101203.71;131205;1268;108707;-81
2022/04/29 05:48:49;;;;;;;15.80;11.00;;;;;;;11.57;63.25;101200.84;130521;1268;108720;-80
2022/04/29 05:51:55;;;;;;;15.30;11.20;;;;;;;11.76;62.77;101203.64;130374;1268;108868;-82
2022/04/29 05:55:05;;;;;;;17.90;12.30;;;;;;;11.96;62.59;101212.51;130345;1268;108898;-83
2022/04/29 05:58:12;;;;;;;15.20;11.60;;;;;;;12.17;62.25;101215.11;130259;1266;107388;-80
2022/04/29 06:01:21;;;;;;;14.40;11.70;;;;;;;12.33;62.10;101215.56;130339;1268;108919;-81
2022/04/29 06:04:26;;;;;;;16.50;11.20;;;;;;;12.46;61.95;101216.20;130370;1268;108863;-82
2022/04/29 06:07:32;;;;;;;17.60;12.20;;;;;;;12.58;61.85;101214.23;130438;1268;108653;-81
2022/04/29 06:10:38;;;;;;;17.80;13.10;;;;;;;12.68;61.95;101211.67;130636;1267;108903;-81
2022/04/29 06:13:44;;;;;;;20.10;11.80;;;;;;;12.77;61.64;101214.56;130664;1267;108728;-81
2022/04/29 06:17:08;;;;;;;16.80;11.90;;;;;;;12.80;60.78;101217.37;130502;1267;108932;-81
2022/04/29 06:20:49;;;;;;;17.00;11.80;;;;;;;12.83;61.31;101220.41;130109;1271;108561;-81
2022/04/29 06:24:09;;;;;;;16.40;12.00;;;;;;;12.88;61.17;101220.14;130444;1267;108631;-81
2022/04/29 06:27:15;;;;;;;15.50;12.60;;;;;;;12.85;60.76;101222.52;130455;1268;108730;-81
2022/04/29 06:30:22;;;;;;;15.20;11.70;;;;;;;12.85;60.53;101220.30;130463;1266;108818;-81
2022/04/29 06:33:47;;;;;;;16.80;11.80;;;;;;;12.89;60.40;101220.90;130480;1265;107641;-81
2022/04/29 06:36:54;;;;;;;18.30;14.80;;;;;;;12.95;58.86;101224.77;130478;1266;108660;-81
2022/04/29 06:40:01;;;;;;;18.00;13.30;;;;;;;12.87;57.56;101225.45;130443;1266;108793;-81
2022/04/29 06:43:29;;;;;;;19.20;13.50;;;;;;;12.84;58.92;101226.73;130470;1268;109174;-81
2022/04/29 06:46:53;;;;;;;18.10;13.00;;;;;;;12.94;58.91;101232.80;130480;1267;108743;-81
2022/04/29 06:50:17;;;;;;;18.40;13.30;;;;;;;13.07;59.56;101231.77;130483;1267;108751;-81
2022/04/29 06:53:52;;;;;;;17.30;14.20;;;;;;;13.23;58.86;101235.91;129998;1268;108816;-81
2022/04/29 06:57:02;;;;;;;17.10;14.30;;;;;;;13.26;57.74;101243.17;130581;1268;108998;-81
2022/04/29 07:00:10;;;;;;;22.60;15.70;;;;;;;13.22;58.51;101242.82;130360;1268;108735;-81
2022/04/29 07:03:15;;;;;;;18.90;15.60;;;;;;;13.21;58.06;101242.08;130425;1268;108552;-81
2022/04/29 07:06:21;;;;;;;17.30;14.80;;;;;;;13.08;57.05;101241.44;130389;1268;108784;-81
2022/04/29 07:09:27;;;;;;;18.50;14.10;;;;;;;13.01;57.25;101243.02;130552;1267;108681;-81
2022/04/29 07:13:05;;;;;;;19.60;15.20;;;;;;;13.04;57.16;101247.59;130119;1268;109509;-81
2022/04/29 07:16:11;;;;;;;18.00;15.00;;;;;;;12.94;56.65;101244.02;130319;1268;109510;-81
2022/04/29 07:19:33;;;;;;;19.70;15.40;;;;;;;12.91;56.55;101251.10;130351;1268;107675;-81
2022/04/29 07:22:40;;;;;;;19.90;15.40;;;;;;;12.91;57.14;101245.41;130310;1268;108939;-81
2022/04/29 07:25:45;;;;;;;18.90;15.40;;;;;;;12.94;56.93;101248.45;130349;1268;108789;-81
2022/04/29 07:28:51;;;;;;;20.70;15.00;;;;;;;13.02;56.73;101252.76;130448;1267;108629;-81
2022/04/29 07:31:56;;;;;;;19.10;14.30;;;;;;;13.09;57.30;101249.82;130264;1268;108010;-81
2022/04/29 07:42:21;;;;;;;16.80;13.40;;;;;;;13.35;53.96;101255.05;130456;1268;108772;-80
2022/04/29 07:45:27;;;;;;;18.30;12.40;;;;;;;13.44;55.12;101250.08;130334;1267;108647;-80
2022/04/29 07:48:56;;;;;;;17.70;13.10;;;;;;;13.58;53.63;101245.50;130380;1267;108951;-80
2022/04/29 07:52:02;;;;;;;17.60;12.40;;;;;;;13.70;54.70;101249.20;130420;1267;108871;-80
2022/04/29 07:55:11;;;;;;;16.80;12.70;;;;;;;13.83;53.85;101249.89;130358;1268;108746;-81
2022/04/29 07:58:17;;;;;;;15.90;12.40;;;;;;;13.81;52.95;101252.77;130453;1268;108678;-80
2022/04/29 08:01:22;;;;;;;18.60;13.30;;;;;;;13.87;54.33;101253.92;130339;1268;108836;-80
2022/04/29 08:04:29;;;;;;;15.70;12.40;;;;;;;13.85;52.89;101259.52;130373;1267;108655;-80
2022/04/29 08:07:34;;;;;;;12.30;9.60;;;;;;;13.73;52.45;101259.20;130309;1268;107771;-81
2022/04/29 08:10:40;;;;;;;17.70;11.90;;;;;;;13.75;52.52;101254.55;130508;1268;108702;-80
2022/04/29 08:13:47;;;;;;;16.40;12.20;;;;;;;13.81;53.19;101255.30;130412;1268;108643;-80
2022/04/29 08:17:12;;;;;;;13.90;11.50;;;;;;;13.91;53.52;101253.20;130576;1267;108677;-80
2022/04/29 08:20:21;;;;;;;14.20;10.30;;;;;;;13.96;52.38;101252.21;130600;1268;109004;-80
2022/04/29 08:23:29;;;;;;;9.80;7.90;;;;;;;14.01;51.73;101238.27;130511;1267;108630;-80
2022/04/29 08:26:35;;;;;;;8.40;6.60;;;;;;;14.06;50.74;101236.89;130536;1267;108737;-80
2022/04/29 08:29:41;;;;;;;7.90;6.10;;;;;;;14.04;49.74;101235.09;130527;1268;108992;-80
2022/04/29 08:32:50;;;;;;;9.90;5.60;;;;;;;14.08;49.86;101237.23;130400;1267;108929;-80
2022/04/29 08:36:03;;;;;;;5.10;3.80;;;;;;;14.08;47.64;101235.64;130461;1268;108837;-80
2022/04/29 08:39:08;;;;;;;8.40;5.90;;;;;;;14.04;47.47;101232.23;130327;1267;108609;-80
2022/04/29 08:42:15;;;;;;;9.10;6.90;;;;;;;14.03;48.31;101233.23;130597;1268;108695;-79
2022/04/29 08:45:21;;;;;;;11.40;7.70;;;;;;;14.10;49.22;101228.27;130573;1268;108957;-79
2022/04/29 08:48:50;;;;;;;11.30;7.30;;;;;;;14.16;47.99;101228.16;130711;1267;108973;-80
2022/04/29 08:51:57;;;;;;;9.80;6.80;;;;;;;14.18;47.76;101227.32;130801;1267;108812;-80
2022/04/29 08:58:39;;;;;;;10.60;8.40;;;;;;;14.16;47.45;101234.68;130651;1267;108736;-80
2022/04/29 09:01:45;;;;;;;11.30;8.10;;;;;;;14.18;48.01;101232.68;130590;1267;108727;-80
2022/04/29 09:04:53;;;;;;;11.90;8.70;;;;;;;14.25;47.72;101229.16;130541;1267;108842;-80
2022/04/29 09:08:00;;;;;;;11.30;8.50;;;;;;;14.29;48.15;101226.36;130853;1267;108747;-80
2022/04/29 09:11:06;;;;;;;9.60;7.60;;;;;;;14.33;47.61;101230.24;130759;1267;108479;-80
2022/04/29 09:14:25;;;;;;;13.70;8.30;;;;;;;14.34;48.30;101220.48;130484;1265;107677;-80
2022/04/29 09:17:31;;;;;;;10.90;7.80;;;;;;;14.35;47.36;101218.30;130388;1267;108723;-80
2022/04/29 09:20:36;;;;;;;11.60;7.70;;;;;;;14.32;48.14;101214.77;130501;1267;108787;-80
2022/04/29 09:23:44;;;;;;;16.70;8.80;;;;;;;14.42;48.15;101203.10;130586;1267;108659;-79
2022/04/29 09:26:51;;;;;;;10.90;7.80;;;;;;;14.54;47.91;101210.23;130538;1267;108923;-79
2022/04/29 09:30:39;;;;;;;9.80;7.00;;;;;;;14.64;48.75;101198.37;130581;1267;108789;-80
2022/04/29 09:34:03;;;;;;;7.90;6.40;;;;;;;14.69;46.20;101200.69;130761;1268;108645;-80
2022/04/29 09:37:19;;;;;;;8.90;5.30;;;;;;;14.82;48.28;101195.21;130396;1267;108706;-79
2022/04/29 09:40:37;;;;;;;6.70;5.20;;;;;;;14.96;44.91;101200.81;130371;1268;108441;-80
2022/04/29 09:43:44;;;;;;;9.60;6.10;;;;;;;15.04;45.45;101201.28;130581;1268;108679;-80
2022/04/29 09:46:49;;;;;;;7.60;6.30;;;;;;;15.07;45.19;101201.96;130484;1267;108669;-80
2022/04/29 09:49:58;;;;;;;7.90;6.60;;;;;;;15.12;46.12;101197.72;130699;1267;108730;-79
2022/04/29 09:53:17;;;;;;;9.40;6.20;;;;;;;15.25;47.32;101191.39;130721;1267;108715;-79
2022/04/29 09:56:23;;;;;;;6.20;5.20;;;;;;;15.43;46.88;101188.70;130512;1267;108864;-80
2022/04/29 09:59:30;;;;;;;10.00;7.20;;;;;;;15.54;45.85;101193.90;130400;1267;108687;-81
2022/04/29 10:02:35;;;;;;;8.70;6.40;;;;;;;15.54;45.31;101192.27;130957;1267;108797;-81
2022/04/29 10:05:44;;;;;;;8.80;6.60;;;;;;;15.55;45.34;101187.86;131171;1267;108566;-81
2022/04/29 10:08:50;;;;;;;13.10;8.10;;;;;;;15.52;42.63;101191.20;131077;1267;108855;-80
2022/04/29 10:11:58;;;;;;;8.30;6.10;;;;;;;15.56;44.55;101186.16;131192;1267;108731;-81
2022/04/29 10:15:06;;;;;;;13.10;8.20;;;;;;;15.75;45.04;101188.20;130826;1267;108816;-81
2022/04/29 10:21:57;;;;;;;7.50;4.80;;;;;;;15.86;43.98;101187.46;131010;1267;107485;-81
2022/04/29 10:25:08;;;;;;;7.60;4.90;;;;;;;15.95;45.28;101179.34;131129;1267;108670;-81
2022/04/29 10:28:22;;;;;;;7.20;5.60;;;;;;;16.05;42.22;101182.31;131110;1267;108880;-80
2022/04/29 10:31:30;;;;;;;6.60;4.60;;;;;;;16.08;44.08;101176.44;131110;1267;108535;-80
2022/04/29 10:34:36;;;;;;;5.70;4.20;;;;;;;16.31;44.40;101178.77;131037;1267;107944;-80
2022/04/29 10:37:43;;;;;;;8.50;5.60;;;;;;;16.46;42.02;101176.75;130873;1268;108813;-80
2022/04/29 10:41:09;;;;;;;7.00;4.70;;;;;;;16.36;43.30;101177.05;131050;1268;108607;-80
2022/04/29 10:44:16;;;;;;;6.90;5.10;;;;;;;16.37;43.43;101167.18;131174;1267;109770;-80
2022/04/29 10:47:38;;;;;;;8.30;5.00;;;;;;;16.31;42.43;101169.50;131232;1267;108724;-80
2022/04/29 10:51:15;;;;;;;5.70;4.20;;;;;;;16.28;43.18;101166.79;131199;1267;108668;-80
2022/04/29 10:54:50;;;;;;;6.00;4.60;;;;;;;16.34;42.55;101174.73;131044;1267;108797;-82
2022/04/29 10:58:21;;;;;;;6.80;4.40;;;;;;;16.28;41.55;101173.95;131217;1267;108798;-82
2022/04/29 11:01:33;;;;;;;7.60;5.50;;;;;;;16.32;43.50;101168.30;131216;1267;108638;-81
2022/04/29 11:04:46;;;;;;;8.20;4.30;;;;;;;16.39;42.93;101167.02;131197;1268;108839;-81
2022/04/29 11:07:53;;;;;;;6.50;5.10;;;;;;;16.48;43.03;101167.41;131122;1267;108254;-81
2022/04/29 11:11:04;;;;;;;7.40;5.30;;;;;;;16.49;40.94;101170.02;131252;1265;108833;-80
2022/04/29 11:14:29;;;;;;;;;;;;;;;16.33;42.62;101164.59;131133;1268;108836;-80
2022/04/29 11:17:47;;;;;;;6.00;4.00;;;;;;;16.27;41.36;101156.42;131293;1268;108771;-81
2022/04/29 11:20:56;;;;;;;4.90;4.00;;;;;;;16.31;41.56;101158.93;131126;1268;108169;-81
2022/04/29 11:27:34;;;;;;;4.40;3.70;;;;;;;16.14;41.09;101156.27;131362;1268;108639;-80
2022/04/29 11:30:40;;;;;;;6.70;3.60;;;;;;;16.26;41.50;101155.15;131254;1267;108874;-81
2022/04/29 11:34:07;;;;;;;5.70;3.30;;;;;;;16.45;41.41;101153.01;131242;1268;108696;-81
2022/04/29 11:37:12;;;;;;;4.90;3.40;;;;;;;16.58;41.13;101158.22;131238;1268;108705;-81
2022/04/29 11:40:18;;;;;;;5.70;4.00;;;;;;;16.68;40.06;101158.02;131203;1268;108742;-81
2022/04/29 11:43:26;;;;;;;4.10;3.40;;;;;;;16.68;40.91;101154.60;131327;1268;108795;-81
2022/04/29 11:46:32;;;;;;;4.20;3.00;;;;;;;16.75;41.07;101148.31;131275;1268;108645;-81
2022/04/29 11:49:38;;;;;;;5.30;2.80;;;;;;;16.63;37.25;101150.86;131166;1268;108744;-81
2022/04/29 11:52:43;;;;;;;3.60;2.90;;;;;;;16.39;37.10;101142.20;131171;1268;108884;-81
2022/04/29 11:55:52;;;;;;;5.30;2.90;;;;;;;16.27;36.35;101138.98;131276;1267;108823;-81
2022/04/29 11:58:57;;;;;;;4.00;3.10;;;;;;;16.23;36.77;101142.88;131206;1267;108749;-81
2022/04/29 12:02:04;;;;;;;4.70;3.00;;;;;;;16.10;36.69;101135.84;131224;1266;108187;-81
2022/04/29 12:05:10;;;;;;;4.30;2.80;;;;;;;16.10;38.10;101137.33;131327;1268;108333;-81
2022/04/29 12:08:17;;;;;;;3.40;2.40;;;;;;;16.14;37.90;101138.27;131347;1268;108846;-81
2022/04/29 12:11:29;;;;;;;4.90;2.80;;;;;;;16.18;37.64;101128.17;131353;1267;109072;-82
2022/04/29 12:14:35;;;;;;;2.90;2.20;;;;;;;16.23;37.59;101130.63;131292;1268;108712;-81
2022/04/29 12:17:42;;;;;;;3.90;2.90;;;;;;;16.25;38.04;101130.60;131313;1266;108640;-81
2022/04/29 12:20:59;;;;;;;3.60;2.60;;;;;;;16.17;35.09;101133.29;131380;1268;108711;-81
2022/04/29 12:24:14;;;;;;;3.90;2.10;;;;;;;16.10;34.56;101137.70;131118;1267;108675;-81
2022/04/29 12:27:32;;;;;;;3.20;2.50;;;;;;;15.98;33.71;101126.83;131305;1267;108794;-82
2022/04/29 12:37:35;;;;;;;4.70;2.90;;;;;;;15.69;34.41;101113.00;131143;1267;109058;-81
2022/04/29 12:40:46;;;;;;;8.20;5.90;;;;;;;15.69;32.15;101110.41;131307;1268;108865;-81
2022/04/29 12:43:52;;;;;;;4.60;2.80;;;;;;;15.69;34.61;101104.39;131163;1267;108677;-81
2022/04/29 12:46:58;;;;;;;4.70;2.40;;;;;;;15.76;34.40;101100.11;131033;1268;108999;-81
2022/04/29 12:50:23;;;;;;;11.60;7.80;;;;;;;15.81;32.50;101097.61;131013;1267;108648;-80
2022/04/29 12:53:32;;;;;;;15.40;10.00;;;;;;;15.79;32.14;101101.88;131079;1268;107584;-81
2022/04/29 12:56:38;;;;;;;12.30;8.50;;;;;;;15.81;34.36;101099.02;131087;1268;108762;-81
2022/04/29 12:59:45;;;;;;;4.60;3.50;;;;;;;15.85;34.59;101092.30;131026;1268;108767;-81
2022/04/29 13:03:04;;;;;;;4.10;3.10;;;;;;;15.91;34.23;101092.92;131024;1266;108673;-80
2022/04/29 13:06:11;;;;;;;5.30;4.20;;;;;;;15.96;33.85;101089.30;131103;1268;108750;-81
2022/04/29 13:09:16;;;;;;;47.20;32.30;;;;;;;15.95;32.95;101087.83;131073;1268;108101;-81
2022/04/29 13:12:22;;;;;;;45.30;36.50;;;;;;;15.97;34.22;101085.80;130909;1268;109053;-81
2022/04/29 13:15:44;;;;;;;12.70;10.30;;;;;;;16.03;34.67;101080.83;130856;1268;108791;-81
2022/04/29 13:18:50;;;;;;;12.80;9.90;;;;;;;16.10;34.28;101079.17;130887;1265;109182;-81
2022/04/29 13:21:56;;;;;;;22.40;17.70;;;;;;;16.12;34.77;101074.46;130937;1268;109694;-81
2022/04/29 13:25:02;;;;;;;25.40;21.60;;;;;;;16.14;34.54;101072.67;130926;1268;108877;-81
2022/04/29 13:28:10;;;;;;;5.60;4.20;;;;;;;16.17;34.15;101072.44;131045;1266;108862;-81
2022/04/29 13:31:16;;;;;;;3.80;2.20;;;;;;;16.18;32.81;101071.64;130884;1268;108681;-81
2022/04/29 13:34:21;;;;;;;4.80;2.70;;;;;;;16.04;31.32;101075.11;130855;1267;108988;-81
2022/04/29 13:37:27;;;;;;;8.30;5.60;;;;;;;15.97;32.92;101076.27;130687;1268;285616;-81
2022/04/29 13:40:33;;;;;;;7.20;4.50;;;;;;;15.95;32.69;101068.61;130866;1268;108896;-81
2022/04/29 13:43:42;;;;;;;3.00;2.30;;;;;;;15.93;31.86;101064.48;130918;1267;108802;-81
2022/04/29 13:46:47;;;;;;;4.00;3.00;;;;;;;15.93;33.61;101062.73;130803;1268;108818;-81
2022/04/29 13:49:53;;;;;;;4.30;2.60;;;;;;;16.02;33.71;101059.96;130816;1267;109037;-81
2022/04/29 13:53:11;;;;;;;8.10;6.60;;;;;;;16.05;32.75;101058.30;130818;1268;108800;-81
2022/04/29 13:56:17;;;;;;;17.80;15.80;;;;;;;16.10;33.84;101057.89;130795;1266;108735;-80
2022/04/29 13:59:24;;;;;;;20.30;15.10;;;;;;;16.17;34.12;101053.24;130562;1268;108705;-81
2022/04/29 14:02:29;;;;;;;15.90;11.50;;;;;;;16.21;32.99;101051.42;130781;1266;108804;-81
2022/04/29 14:05:35;;;;;;;4.10;2.70;;;;;;;16.17;32.74;101048.73;130774;1268;109156;-81
2022/04/29 14:08:41;;;;;;;5.90;4.40;;;;;;;16.13;32.80;101044.53;130614;1267;108692;-81
2022/04/29 14:11:46;;;;;;;8.60;6.10;;;;;;;16.08;31.48;101051.20;130710;1268;108796;-81
2022/04/29 14:14:53;;;;;;;21.20;18.90;;;;;;;16.02;32.30;101049.03;130868;1267;107161;-81
2022/04/29 14:17:58;;;;;;;8.30;6.20;;;;;;;16.01;33.49;101041.21;130771;1268;108867;-78
2022/04/29 14:21:04;;;;;;;3.50;2.50;;;;;;;16.03;33.04;101039.84;130591;1268;108553;-83
2022/04/29 14:24:11;;;;;;;3.50;3.00;;;;;;;15.97;32.02;101045.60;130796;1267;107874;-83
2022/04/29 14:27:19;;;;;;;3.70;3.00;;;;;;;15.91;33.06;101035.88;130477;1268;108640;-84
2022/04/29 14:30:25;;;;;;;5.70;2.50;;;;;;;15.90;32.58;101038.80;130829;1268;107779;-82
2022/04/29 14:33:32;;;;;;;3.70;2.40;;;;;;;15.89;32.45;101039.28;130548;1267;108691;-85
2022/04/29 14:36:38;;;;;;;4.20;2.50;;;;;;;15.86;31.34;101043.05;130498;1267;108712;-82
2022/04/29 14:39:44;;;;;;;8.30;5.20;;;;;;;15.80;31.99;101036.55;130578;1268;108830;-82
2022/04/29 14:42:50;;;;;;;8.10;5.10;;;;;;;15.78;31.65;101035.00;130848;1268;106062;-83